sensor_id;sensor_type;location;lat;lon;timestamp;P1;durP1;ratioP1;P2;durP2;ratioP2
52041;SDS011;38052;45.944;13.624;2023-11-21T00:00:20;12.65;;;8.98;;
52041;SDS011;38052;45.944;13.624;2023-11-21T00:02:47;12.65;;;8.25;;
52041;SDS011;38052;45.944;13.624;2023-11-21T00:05:14;13.80;;;8.02;;
52041;SDS011;38052;45.944;13.624;2023-11-21T00:07:41;11.95;;;7.43;;
52041;SDS011;38052;45.944;13.624;2023-11-21T00:10:07;13.65;;;8.15;;
52041;SDS011;38052;45.944;13.624;2023-11-21T00:12:34;12.23;;;7.53;;
52041;SDS011;38052;45.944;13.624;2023-11-21T00:15:00;12.32;;;7.50;;
52041;SDS011;38052;45.944;13.624;2023-11-21T00:17:27;8.88;;;6.25;;
52041;SDS011;38052;45.944;13.624;2023-11-21T00:19:54;8.23;;;6.47;;
52041;SDS011;38052;45.944;13.624;2023-11-21T00:22:20;13.38;;;7.10;;
52041;SDS011;38052;45.944;13.624;2023-11-21T00:24:48;10.93;;;6.95;;
52041;SDS011;38052;45.944;13.624;2023-11-21T00:27:14;9.98;;;6.15;;
52041;SDS011;38052;45.944;13.624;2023-11-21T00:29:40;9.43;;;7.05;;
52041;SDS011;38052;45.944;13.624;2023-11-21T00:32:07;8.45;;;6.38;;
52041;SDS011;38052;45.944;13.624;2023-11-21T00:34:34;8.02;;;6.78;;
52041;SDS011;38052;45.944;13.624;2023-11-21T00:37:00;12.32;;;6.80;;
52041;SDS011;38052;45.944;13.624;2023-11-21T00:39:27;13.40;;;8.65;;
52041;SDS011;38052;45.944;13.624;2023-11-21T00:41:54;16.00;;;11.02;;
52041;SDS011;38052;45.944;13.624;2023-11-21T00:44:21;15.85;;;9.63;;
52041;SDS011;38052;45.944;13.624;2023-11-21T00:46:47;18.88;;;9.63;;
52041;SDS011;38052;45.944;13.624;2023-11-21T00:49:14;13.73;;;9.95;;
52041;SDS011;38052;45.944;13.624;2023-11-21T00:51:40;17.00;;;10.00;;
52041;SDS011;38052;45.944;13.624;2023-11-21T00:54:07;14.18;;;11.40;;
52041;SDS011;38052;45.944;13.624;2023-11-21T00:56:33;11.40;;;10.00;;
52041;SDS011;38052;45.944;13.624;2023-11-21T00:59:00;19.90;;;10.25;;
52041;SDS011;38052;45.944;13.624;2023-11-21T01:01:26;15.40;;;10.23;;
52041;SDS011;38052;45.944;13.624;2023-11-21T01:03:53;16.20;;;10.98;;
52041;SDS011;38052;45.944;13.624;2023-11-21T01:06:19;14.52;;;11.35;;
52041;SDS011;38052;45.944;13.624;2023-11-21T01:08:46;15.02;;;11.07;;
52041;SDS011;38052;45.944;13.624;2023-11-21T01:11:13;13.57;;;10.73;;
52041;SDS011;38052;45.944;13.624;2023-11-21T01:13:40;11.43;;;9.63;;
52041;SDS011;38052;45.944;13.624;2023-11-21T01:16:07;14.95;;;8.80;;
52041;SDS011;38052;45.944;13.624;2023-11-21T01:18:34;12.65;;;9.05;;
52041;SDS011;38052;45.944;13.624;2023-11-21T01:21:01;8.13;;;6.78;;
52041;SDS011;38052;45.944;13.624;2023-11-21T01:23:28;10.52;;;7.32;;
52041;SDS011;38052;45.944;13.624;2023-11-21T01:25:55;10.43;;;6.47;;
52041;SDS011;38052;45.944;13.624;2023-11-21T01:28:22;14.60;;;6.68;;
52041;SDS011;38052;45.944;13.624;2023-11-21T01:30:49;7.45;;;5.32;;
52041;SDS011;38052;45.944;13.624;2023-11-21T01:33:15;8.68;;;5.93;;
52041;SDS011;38052;45.944;13.624;2023-11-21T01:35:41;8.63;;;5.25;;
52041;SDS011;38052;45.944;13.624;2023-11-21T01:38:08;9.25;;;5.32;;
52041;SDS011;38052;45.944;13.624;2023-11-21T01:40:35;7.63;;;5.63;;
52041;SDS011;38052;45.944;13.624;2023-11-21T01:43:01;10.13;;;5.35;;
52041;SDS011;38052;45.944;13.624;2023-11-21T01:45:28;8.48;;;6.10;;
52041;SDS011;38052;45.944;13.624;2023-11-21T01:47:56;11.55;;;6.35;;
52041;SDS011;38052;45.944;13.624;2023-11-21T01:50:24;10.45;;;5.80;;
52041;SDS011;38052;45.944;13.624;2023-11-21T01:52:50;10.55;;;6.13;;
52041;SDS011;38052;45.944;13.624;2023-11-21T01:55:17;11.70;;;5.43;;
52041;SDS011;38052;45.944;13.624;2023-11-21T01:57:45;9.43;;;5.68;;
52041;SDS011;38052;45.944;13.624;2023-11-21T02:00:12;8.68;;;5.00;;
52041;SDS011;38052;45.944;13.624;2023-11-21T02:02:45;6.80;;;5.28;;
52041;SDS011;38052;45.944;13.624;2023-11-21T02:05:11;10.95;;;5.78;;
52041;SDS011;38052;45.944;13.624;2023-11-21T02:07:38;12.27;;;7.82;;
52041;SDS011;38052;45.944;13.624;2023-11-21T02:10:05;12.35;;;8.88;;
52041;SDS011;38052;45.944;13.624;2023-11-21T02:12:32;14.60;;;9.23;;
52041;SDS011;38052;45.944;13.624;2023-11-21T02:15:00;12.63;;;9.43;;
52041;SDS011;38052;45.944;13.624;2023-11-21T02:17:26;14.63;;;10.70;;
52041;SDS011;38052;45.944;13.624;2023-11-21T02:19:53;16.73;;;12.65;;
52041;SDS011;38052;45.944;13.624;2023-11-21T02:22:20;18.60;;;14.32;;
52041;SDS011;38052;45.944;13.624;2023-11-21T02:24:47;17.98;;;12.55;;
52041;SDS011;38052;45.944;13.624;2023-11-21T02:27:14;17.25;;;11.32;;
52041;SDS011;38052;45.944;13.624;2023-11-21T02:29:45;19.80;;;13.73;;
52041;SDS011;38052;45.944;13.624;2023-11-21T02:32:12;18.13;;;14.43;;
52041;SDS011;38052;45.944;13.624;2023-11-21T02:34:38;22.52;;;18.13;;
52041;SDS011;38052;45.944;13.624;2023-11-21T02:37:05;18.58;;;15.15;;
52041;SDS011;38052;45.944;13.624;2023-11-21T02:39:31;14.52;;;11.68;;
52041;SDS011;38052;45.944;13.624;2023-11-21T02:41:58;17.30;;;13.88;;
52041;SDS011;38052;45.944;13.624;2023-11-21T02:44:24;13.05;;;11.13;;
52041;SDS011;38052;45.944;13.624;2023-11-21T02:46:51;13.25;;;9.82;;
52041;SDS011;38052;45.944;13.624;2023-11-21T02:49:17;11.20;;;8.68;;
52041;SDS011;38052;45.944;13.624;2023-11-21T02:51:44;11.73;;;8.25;;
52041;SDS011;38052;45.944;13.624;2023-11-21T02:54:10;11.20;;;6.65;;
52041;SDS011;38052;45.944;13.624;2023-11-21T02:56:37;7.68;;;6.07;;
52041;SDS011;38052;45.944;13.624;2023-11-21T02:59:05;10.88;;;5.65;;
52041;SDS011;38052;45.944;13.624;2023-11-21T03:01:31;8.52;;;4.95;;
52041;SDS011;38052;45.944;13.624;2023-11-21T03:03:58;8.55;;;4.47;;
52041;SDS011;38052;45.944;13.624;2023-11-21T03:06:24;6.00;;;4.32;;
52041;SDS011;38052;45.944;13.624;2023-11-21T03:08:50;6.68;;;4.32;;
52041;SDS011;38052;45.944;13.624;2023-11-21T03:11:17;5.63;;;4.10;;
52041;SDS011;38052;45.944;13.624;2023-11-21T03:13:43;11.40;;;3.75;;
52041;SDS011;38052;45.944;13.624;2023-11-21T03:16:10;5.95;;;4.28;;
52041;SDS011;38052;45.944;13.624;2023-11-21T03:18:38;7.82;;;5.53;;
52041;SDS011;38052;45.944;13.624;2023-11-21T03:21:05;6.20;;;4.45;;
52041;SDS011;38052;45.944;13.624;2023-11-21T03:23:33;8.95;;;4.78;;
52041;SDS011;38052;45.944;13.624;2023-11-21T03:26:00;7.30;;;4.80;;
52041;SDS011;38052;45.944;13.624;2023-11-21T03:28:27;7.03;;;5.50;;
52041;SDS011;38052;45.944;13.624;2023-11-21T03:30:53;8.63;;;4.78;;
52041;SDS011;38052;45.944;13.624;2023-11-21T03:33:20;10.25;;;6.60;;
52041;SDS011;38052;45.944;13.624;2023-11-21T03:35:46;9.02;;;5.50;;
52041;SDS011;38052;45.944;13.624;2023-11-21T03:38:13;12.27;;;6.90;;
52041;SDS011;38052;45.944;13.624;2023-11-21T03:40:39;11.88;;;8.07;;
52041;SDS011;38052;45.944;13.624;2023-11-21T03:43:05;8.13;;;6.43;;
52041;SDS011;38052;45.944;13.624;2023-11-21T03:45:32;8.80;;;7.15;;
52041;SDS011;38052;45.944;13.624;2023-11-21T03:47:59;9.75;;;7.63;;
52041;SDS011;38052;45.944;13.624;2023-11-21T03:50:27;12.07;;;6.40;;
52041;SDS011;38052;45.944;13.624;2023-11-21T03:52:53;10.70;;;7.07;;
52041;SDS011;38052;45.944;13.624;2023-11-21T03:55:20;12.73;;;6.57;;
52041;SDS011;38052;45.944;13.624;2023-11-21T03:57:46;10.27;;;5.50;;
52041;SDS011;38052;45.944;13.624;2023-11-21T04:00:13;14.88;;;6.28;;
52041;SDS011;38052;45.944;13.624;2023-11-21T04:02:39;6.10;;;4.35;;
52041;SDS011;38052;45.944;13.624;2023-11-21T04:05:06;8.25;;;4.55;;
52041;SDS011;38052;45.944;13.624;2023-11-21T04:07:34;5.75;;;3.58;;
52041;SDS011;38052;45.944;13.624;2023-11-21T04:10:02;9.23;;;4.85;;
52041;SDS011;38052;45.944;13.624;2023-11-21T04:12:28;5.93;;;4.55;;
52041;SDS011;38052;45.944;13.624;2023-11-21T04:14:55;8.15;;;4.15;;
52041;SDS011;38052;45.944;13.624;2023-11-21T04:17:22;5.80;;;4.10;;
52041;SDS011;38052;45.944;13.624;2023-11-21T04:19:49;8.25;;;4.43;;
52041;SDS011;38052;45.944;13.624;2023-11-21T04:22:15;6.70;;;4.90;;
52041;SDS011;38052;45.944;13.624;2023-11-21T04:24:42;9.73;;;4.25;;
52041;SDS011;38052;45.944;13.624;2023-11-21T04:27:09;6.28;;;4.85;;
52041;SDS011;38052;45.944;13.624;2023-11-21T04:29:36;6.32;;;4.60;;
52041;SDS011;38052;45.944;13.624;2023-11-21T04:32:02;6.00;;;3.92;;
52041;SDS011;38052;45.944;13.624;2023-11-21T04:34:29;8.23;;;4.38;;
52041;SDS011;38052;45.944;13.624;2023-11-21T04:36:56;5.70;;;4.18;;
52041;SDS011;38052;45.944;13.624;2023-11-21T04:39:22;6.57;;;3.88;;
52041;SDS011;38052;45.944;13.624;2023-11-21T04:41:49;6.95;;;4.40;;
52041;SDS011;38052;45.944;13.624;2023-11-21T04:44:16;8.35;;;4.45;;
52041;SDS011;38052;45.944;13.624;2023-11-21T04:46:42;7.38;;;5.03;;
52041;SDS011;38052;45.944;13.624;2023-11-21T04:49:09;8.48;;;5.28;;
52041;SDS011;38052;45.944;13.624;2023-11-21T04:51:36;7.10;;;4.47;;
52041;SDS011;38052;45.944;13.624;2023-11-21T04:54:02;11.70;;;4.45;;
52041;SDS011;38052;45.944;13.624;2023-11-21T04:56:28;7.05;;;5.13;;
52041;SDS011;38052;45.944;13.624;2023-11-21T04:58:55;7.05;;;4.28;;
52041;SDS011;38052;45.944;13.624;2023-11-21T05:01:21;6.25;;;3.92;;
52041;SDS011;38052;45.944;13.624;2023-11-21T05:03:48;11.30;;;4.75;;
52041;SDS011;38052;45.944;13.624;2023-11-21T05:06:15;5.97;;;4.72;;
52041;SDS011;38052;45.944;13.624;2023-11-21T05:08:41;7.82;;;4.78;;
52041;SDS011;38052;45.944;13.624;2023-11-21T05:11:07;7.03;;;5.45;;
52041;SDS011;38052;45.944;13.624;2023-11-21T05:13:35;5.97;;;4.97;;
52041;SDS011;38052;45.944;13.624;2023-11-21T05:16:03;7.07;;;5.60;;
52041;SDS011;38052;45.944;13.624;2023-11-21T05:18:30;8.27;;;5.05;;
52041;SDS011;38052;45.944;13.624;2023-11-21T05:20:57;5.55;;;4.82;;
52041;SDS011;38052;45.944;13.624;2023-11-21T05:23:23;10.65;;;5.28;;
52041;SDS011;38052;45.944;13.624;2023-11-21T05:25:51;7.65;;;5.53;;
52041;SDS011;38052;45.944;13.624;2023-11-21T05:28:17;5.95;;;4.35;;
52041;SDS011;38052;45.944;13.624;2023-11-21T05:30:44;10.93;;;5.60;;
52041;SDS011;38052;45.944;13.624;2023-11-21T05:33:11;11.35;;;5.68;;
52041;SDS011;38052;45.944;13.624;2023-11-21T05:35:37;13.45;;;7.82;;
52041;SDS011;38052;45.944;13.624;2023-11-21T05:38:04;12.73;;;5.75;;
52041;SDS011;38052;45.944;13.624;2023-11-21T05:40:30;10.27;;;5.95;;
52041;SDS011;38052;45.944;13.624;2023-11-21T05:42:57;14.45;;;7.82;;
52041;SDS011;38052;45.944;13.624;2023-11-21T05:45:23;13.60;;;6.82;;
52041;SDS011;38052;45.944;13.624;2023-11-21T05:47:49;9.05;;;6.78;;
52041;SDS011;38052;45.944;13.624;2023-11-21T05:50:16;9.88;;;6.97;;
52041;SDS011;38052;45.944;13.624;2023-11-21T05:52:43;12.10;;;8.57;;
52041;SDS011;38052;45.944;13.624;2023-11-21T05:55:10;12.85;;;8.50;;
52041;SDS011;38052;45.944;13.624;2023-11-21T05:57:37;9.00;;;6.85;;
52041;SDS011;38052;45.944;13.624;2023-11-21T06:02:40;8.45;;;7.00;;
52041;SDS011;38052;45.944;13.624;2023-11-21T06:05:07;13.27;;;7.55;;
52041;SDS011;38052;45.944;13.624;2023-11-21T06:07:33;12.40;;;8.05;;
52041;SDS011;38052;45.944;13.624;2023-11-21T06:10:01;17.20;;;8.52;;
52041;SDS011;38052;45.944;13.624;2023-11-21T06:12:28;9.38;;;7.60;;
52041;SDS011;38052;45.944;13.624;2023-11-21T06:14:54;12.40;;;6.90;;
52041;SDS011;38052;45.944;13.624;2023-11-21T06:17:20;14.13;;;7.80;;
52041;SDS011;38052;45.944;13.624;2023-11-21T06:19:49;13.40;;;8.50;;
52041;SDS011;38052;45.944;13.624;2023-11-21T06:22:17;13.65;;;7.78;;
52041;SDS011;38052;45.944;13.624;2023-11-21T06:24:43;12.23;;;8.10;;
52041;SDS011;38052;45.944;13.624;2023-11-21T06:27:10;12.38;;;8.38;;
52041;SDS011;38052;45.944;13.624;2023-11-21T06:29:37;10.93;;;8.25;;
52041;SDS011;38052;45.944;13.624;2023-11-21T06:32:03;12.55;;;7.53;;
52041;SDS011;38052;45.944;13.624;2023-11-21T06:34:30;14.98;;;7.90;;
52041;SDS011;38052;45.944;13.624;2023-11-21T06:36:56;11.25;;;8.60;;
52041;SDS011;38052;45.944;13.624;2023-11-21T06:39:23;9.45;;;7.47;;
52041;SDS011;38052;45.944;13.624;2023-11-21T06:41:49;12.68;;;8.55;;
52041;SDS011;38052;45.944;13.624;2023-11-21T06:44:15;12.68;;;8.30;;
52041;SDS011;38052;45.944;13.624;2023-11-21T06:46:42;12.00;;;8.65;;
52041;SDS011;38052;45.944;13.624;2023-11-21T06:49:09;16.52;;;9.93;;
52041;SDS011;38052;45.944;13.624;2023-11-21T06:51:36;10.85;;;8.15;;
52041;SDS011;38052;45.944;13.624;2023-11-21T06:54:02;10.48;;;6.85;;
52041;SDS011;38052;45.944;13.624;2023-11-21T06:56:28;11.30;;;7.22;;
52041;SDS011;38052;45.944;13.624;2023-11-21T06:58:55;6.65;;;5.68;;
52041;SDS011;38052;45.944;13.624;2023-11-21T07:01:22;7.68;;;3.28;;
52041;SDS011;38052;45.944;13.624;2023-11-21T07:03:48;7.55;;;3.65;;
52041;SDS011;38052;45.944;13.624;2023-11-21T07:06:15;5.85;;;3.42;;
52041;SDS011;38052;45.944;13.624;2023-11-21T07:08:41;8.90;;;4.65;;
52041;SDS011;38052;45.944;13.624;2023-11-21T07:11:08;6.25;;;4.05;;
52041;SDS011;38052;45.944;13.624;2023-11-21T07:13:35;8.07;;;4.78;;
52041;SDS011;38052;45.944;13.624;2023-11-21T07:16:02;6.32;;;4.88;;
52041;SDS011;38052;45.944;13.624;2023-11-21T07:18:29;5.05;;;3.92;;
52041;SDS011;38052;45.944;13.624;2023-11-21T07:20:56;4.20;;;1.55;;
52041;SDS011;38052;45.944;13.624;2023-11-21T07:23:24;2.83;;;1.77;;
52041;SDS011;38052;45.944;13.624;2023-11-21T07:25:50;2.75;;;1.42;;
52041;SDS011;38052;45.944;13.624;2023-11-21T07:28:17;1.95;;;1.08;;
52041;SDS011;38052;45.944;13.624;2023-11-21T07:30:44;10.88;;;1.30;;
52041;SDS011;38052;45.944;13.624;2023-11-21T07:33:10;6.30;;;1.27;;
52041;SDS011;38052;45.944;13.624;2023-11-21T07:35:37;3.95;;;1.50;;
52041;SDS011;38052;45.944;13.624;2023-11-21T07:38:04;3.95;;;1.92;;
52041;SDS011;38052;45.944;13.624;2023-11-21T07:40:30;6.88;;;1.95;;
52041;SDS011;38052;45.944;13.624;2023-11-21T07:42:57;8.18;;;2.85;;
52041;SDS011;38052;45.944;13.624;2023-11-21T07:45:24;8.77;;;2.90;;
52041;SDS011;38052;45.944;13.624;2023-11-21T07:47:52;7.18;;;3.13;;
52041;SDS011;38052;45.944;13.624;2023-11-21T07:50:19;5.03;;;3.40;;
52041;SDS011;38052;45.944;13.624;2023-11-21T07:52:45;18.33;;;4.28;;
52041;SDS011;38052;45.944;13.624;2023-11-21T07:55:12;8.25;;;3.47;;
52041;SDS011;38052;45.944;13.624;2023-11-21T07:57:39;6.05;;;2.95;;
52041;SDS011;38052;45.944;13.624;2023-11-21T08:00:05;7.78;;;3.35;;
52041;SDS011;38052;45.944;13.624;2023-11-21T08:02:34;7.97;;;4.63;;
52041;SDS011;38052;45.944;13.624;2023-11-21T08:05:00;7.95;;;4.32;;
52041;SDS011;38052;45.944;13.624;2023-11-21T08:07:26;8.70;;;3.58;;
52041;SDS011;38052;45.944;13.624;2023-11-21T08:09:52;11.10;;;2.92;;
52041;SDS011;38052;45.944;13.624;2023-11-21T08:12:19;10.52;;;5.05;;
52041;SDS011;38052;45.944;13.624;2023-11-21T08:14:46;20.17;;;5.85;;
52041;SDS011;38052;45.944;13.624;2023-11-21T08:17:13;22.05;;;3.72;;
52041;SDS011;38052;45.944;13.624;2023-11-21T08:19:39;11.20;;;3.08;;
52041;SDS011;38052;45.944;13.624;2023-11-21T08:22:06;21.73;;;3.10;;
52041;SDS011;38052;45.944;13.624;2023-11-21T08:24:33;16.17;;;3.42;;
52041;SDS011;38052;45.944;13.624;2023-11-21T08:26:59;9.65;;;3.63;;
52041;SDS011;38052;45.944;13.624;2023-11-21T08:29:26;12.07;;;3.53;;
52041;SDS011;38052;45.944;13.624;2023-11-21T08:31:52;14.02;;;3.05;;
52041;SDS011;38052;45.944;13.624;2023-11-21T08:34:19;5.10;;;3.25;;
52041;SDS011;38052;45.944;13.624;2023-11-21T08:36:45;6.07;;;3.05;;
52041;SDS011;38052;45.944;13.624;2023-11-21T08:39:12;6.90;;;3.65;;
52041;SDS011;38052;45.944;13.624;2023-11-21T08:41:38;10.10;;;4.35;;
52041;SDS011;38052;45.944;13.624;2023-11-21T08:44:05;5.75;;;3.42;;
52041;SDS011;38052;45.944;13.624;2023-11-21T08:46:32;13.88;;;3.67;;
52041;SDS011;38052;45.944;13.624;2023-11-21T08:49:00;1.90;;;0.90;;
52041;SDS011;38052;45.944;13.624;2023-11-21T08:51:27;8.07;;;2.88;;
52041;SDS011;38052;45.944;13.624;2023-11-21T08:53:53;3.70;;;2.50;;
52041;SDS011;38052;45.944;13.624;2023-11-21T08:56:20;5.82;;;2.25;;
52041;SDS011;38052;45.944;13.624;2023-11-21T08:58:46;12.32;;;3.28;;
52041;SDS011;38052;45.944;13.624;2023-11-21T09:01:12;7.47;;;3.08;;
52041;SDS011;38052;45.944;13.624;2023-11-21T09:03:39;7.78;;;3.05;;
52041;SDS011;38052;45.944;13.624;2023-11-21T09:06:06;5.97;;;2.75;;
52041;SDS011;38052;45.944;13.624;2023-11-21T09:08:34;7.55;;;2.45;;
52041;SDS011;38052;45.944;13.624;2023-11-21T09:11:02;13.15;;;3.78;;
52041;SDS011;38052;45.944;13.624;2023-11-21T09:13:28;7.38;;;3.20;;
52041;SDS011;38052;45.944;13.624;2023-11-21T09:15:55;7.85;;;2.88;;
52041;SDS011;38052;45.944;13.624;2023-11-21T09:18:23;6.15;;;2.55;;
52041;SDS011;38052;45.944;13.624;2023-11-21T09:20:49;3.17;;;1.40;;
52041;SDS011;38052;45.944;13.624;2023-11-21T09:23:15;4.13;;;1.10;;
52041;SDS011;38052;45.944;13.624;2023-11-21T09:25:41;4.13;;;1.23;;
52041;SDS011;38052;45.944;13.624;2023-11-21T09:28:11;4.55;;;1.23;;
52041;SDS011;38052;45.944;13.624;2023-11-21T09:30:37;3.63;;;1.48;;
52041;SDS011;38052;45.944;13.624;2023-11-21T09:33:04;2.75;;;1.70;;
52041;SDS011;38052;45.944;13.624;2023-11-21T09:35:33;3.65;;;1.15;;
52041;SDS011;38052;45.944;13.624;2023-11-21T09:38:00;3.70;;;2.03;;
52041;SDS011;38052;45.944;13.624;2023-11-21T09:40:30;1.73;;;1.20;;
52041;SDS011;38052;45.944;13.624;2023-11-21T09:42:57;2.90;;;1.50;;
52041;SDS011;38052;45.944;13.624;2023-11-21T09:45:27;2.47;;;1.30;;
52041;SDS011;38052;45.944;13.624;2023-11-21T09:47:54;9.15;;;1.77;;
52041;SDS011;38052;45.944;13.624;2023-11-21T09:50:23;5.78;;;1.83;;
52041;SDS011;38052;45.944;13.624;2023-11-21T09:52:55;6.45;;;2.33;;
52041;SDS011;38052;45.944;13.624;2023-11-21T09:55:24;5.65;;;1.23;;
52041;SDS011;38052;45.944;13.624;2023-11-21T09:57:55;2.58;;;1.17;;
52041;SDS011;38052;45.944;13.624;2023-11-21T10:00:22;2.97;;;1.05;;
52041;SDS011;38052;45.944;13.624;2023-11-21T10:02:51;3.70;;;1.35;;
52041;SDS011;38052;45.944;13.624;2023-11-21T10:05:18;3.42;;;1.48;;
52041;SDS011;38052;45.944;13.624;2023-11-21T10:07:47;3.42;;;1.40;;
52041;SDS011;38052;45.944;13.624;2023-11-21T10:10:14;3.53;;;1.00;;
52041;SDS011;38052;45.944;13.624;2023-11-21T10:12:45;5.43;;;1.52;;
52041;SDS011;38052;45.944;13.624;2023-11-21T10:15:14;4.97;;;1.25;;
52041;SDS011;38052;45.944;13.624;2023-11-21T10:17:41;2.17;;;0.90;;
52041;SDS011;38052;45.944;13.624;2023-11-21T10:20:10;2.53;;;0.95;;
52041;SDS011;38052;45.944;13.624;2023-11-21T10:22:39;4.40;;;1.13;;
52041;SDS011;38052;45.944;13.624;2023-11-21T10:25:11;5.47;;;1.23;;
52041;SDS011;38052;45.944;13.624;2023-11-21T10:27:42;3.05;;;0.90;;
52041;SDS011;38052;45.944;13.624;2023-11-21T10:30:08;2.92;;;0.88;;
52041;SDS011;38052;45.944;13.624;2023-11-21T10:32:41;1.35;;;0.80;;
52041;SDS011;38052;45.944;13.624;2023-11-21T10:35:09;2.55;;;0.60;;
52041;SDS011;38052;45.944;13.624;2023-11-21T10:37:37;1.67;;;0.47;;
52041;SDS011;38052;45.944;13.624;2023-11-21T10:40:08;0.47;;;0.20;;
52041;SDS011;38052;45.944;13.624;2023-11-21T10:42:38;0.90;;;0.30;;
52041;SDS011;38052;45.944;13.624;2023-11-21T10:45:05;1.35;;;0.40;;
52041;SDS011;38052;45.944;13.624;2023-11-21T10:47:39;1.00;;;0.30;;
52041;SDS011;38052;45.944;13.624;2023-11-21T10:50:05;0.70;;;0.22;;
52041;SDS011;38052;45.944;13.624;2023-11-21T10:52:35;1.42;;;0.30;;
52041;SDS011;38052;45.944;13.624;2023-11-21T10:55:19;2.78;;;0.73;;
52041;SDS011;38052;45.944;13.624;2023-11-21T10:57:53;3.67;;;0.35;;
52041;SDS011;38052;45.944;13.624;2023-11-21T11:00:20;1.15;;;0.40;;
52041;SDS011;38052;45.944;13.624;2023-11-21T11:02:51;1.00;;;0.35;;
52041;SDS011;38052;45.944;13.624;2023-11-21T11:05:23;0.60;;;0.30;;
52041;SDS011;38052;45.944;13.624;2023-11-21T11:07:51;1.15;;;0.40;;
52041;SDS011;38052;45.944;13.624;2023-11-21T11:10:19;0.88;;;0.25;;
52041;SDS011;38052;45.944;13.624;2023-11-21T11:12:48;1.30;;;0.30;;
52041;SDS011;38052;45.944;13.624;2023-11-21T11:15:15;0.70;;;0.20;;
52041;SDS011;38052;45.944;13.624;2023-11-21T11:17:43;0.52;;;0.20;;
52041;SDS011;38052;45.944;13.624;2023-11-21T11:20:11;1.13;;;0.30;;
52041;SDS011;38052;45.944;13.624;2023-11-21T11:22:48;1.35;;;0.30;;
52041;SDS011;38052;45.944;13.624;2023-11-21T11:32:50;0.70;;;0.30;;
52041;SDS011;38052;45.944;13.624;2023-11-21T11:37:50;1.27;;;0.30;;
52041;SDS011;38052;45.944;13.624;2023-11-21T11:40:16;2.40;;;0.35;;
52041;SDS011;38052;45.944;13.624;2023-11-21T11:42:57;1.33;;;0.40;;
52041;SDS011;38052;45.944;13.624;2023-11-21T11:45:32;2.63;;;0.55;;
52041;SDS011;38052;45.944;13.624;2023-11-21T11:47:59;2.75;;;0.80;;
52041;SDS011;38052;45.944;13.624;2023-11-21T11:50:26;2.55;;;0.70;;
52041;SDS011;38052;45.944;13.624;2023-11-21T11:52:53;1.35;;;0.55;;
52041;SDS011;38052;45.944;13.624;2023-11-21T11:55:23;1.13;;;0.52;;
52041;SDS011;38052;45.944;13.624;2023-11-21T11:57:50;1.17;;;0.50;;
52041;SDS011;38052;45.944;13.624;2023-11-21T12:00:50;0.68;;;0.28;;
52041;SDS011;38052;45.944;13.624;2023-11-21T12:03:13;1.30;;;0.38;;
52041;SDS011;38052;45.944;13.624;2023-11-21T12:05:40;1.80;;;0.55;;
52041;SDS011;38052;45.944;13.624;2023-11-21T12:08:10;2.50;;;0.77;;
52041;SDS011;38052;45.944;13.624;2023-11-21T12:10:38;0.68;;;0.22;;
52041;SDS011;38052;45.944;13.624;2023-11-21T12:13:08;0.47;;;0.22;;
52041;SDS011;38052;45.944;13.624;2023-11-21T12:15:36;1.27;;;0.38;;
52041;SDS011;38052;45.944;13.624;2023-11-21T12:18:03;2.20;;;0.55;;
52041;SDS011;38052;45.944;13.624;2023-11-21T12:20:30;1.85;;;0.55;;
52041;SDS011;38052;45.944;13.624;2023-11-21T12:22:58;0.80;;;0.22;;
52041;SDS011;38052;45.944;13.624;2023-11-21T12:25:26;1.50;;;0.32;;
52041;SDS011;38052;45.944;13.624;2023-11-21T12:28:00;0.68;;;0.20;;
52041;SDS011;38052;45.944;13.624;2023-11-21T12:30:29;1.30;;;0.30;;
52041;SDS011;38052;45.944;13.624;2023-11-21T12:32:59;1.40;;;0.32;;
52041;SDS011;38052;45.944;13.624;2023-11-21T12:35:32;1.15;;;0.40;;
52041;SDS011;38052;45.944;13.624;2023-11-21T12:38:03;4.63;;;0.40;;
52041;SDS011;38052;45.944;13.624;2023-11-21T12:40:30;1.02;;;0.40;;
52041;SDS011;38052;45.944;13.624;2023-11-21T12:42:57;1.30;;;0.38;;
52041;SDS011;38052;45.944;13.624;2023-11-21T12:45:25;0.57;;;0.20;;
52041;SDS011;38052;45.944;13.624;2023-11-21T12:48:00;1.10;;;0.40;;
52041;SDS011;38052;45.944;13.624;2023-11-21T12:50:29;0.68;;;0.50;;
52041;SDS011;38052;45.944;13.624;2023-11-21T12:53:15;2.13;;;0.60;;
52041;SDS011;38052;45.944;13.624;2023-11-21T12:55:43;1.10;;;0.60;;
52041;SDS011;38052;45.944;13.624;2023-11-21T12:58:15;1.00;;;0.40;;
52041;SDS011;38052;45.944;13.624;2023-11-21T13:00:43;2.72;;;0.40;;
52041;SDS011;38052;45.944;13.624;2023-11-21T13:03:11;2.58;;;0.60;;
52041;SDS011;38052;45.944;13.624;2023-11-21T13:05:41;2.63;;;0.65;;
52041;SDS011;38052;45.944;13.624;2023-11-21T13:08:10;3.88;;;2.05;;
52041;SDS011;38052;45.944;13.624;2023-11-21T13:10:43;4.18;;;0.90;;
52041;SDS011;38052;45.944;13.624;2023-11-21T13:13:12;1.50;;;0.77;;
52041;SDS011;38052;45.944;13.624;2023-11-21T13:15:49;2.28;;;1.05;;
52041;SDS011;38052;45.944;13.624;2023-11-21T13:18:15;2.17;;;0.82;;
52041;SDS011;38052;45.944;13.624;2023-11-21T13:20:42;4.07;;;1.00;;
52041;SDS011;38052;45.944;13.624;2023-11-21T13:23:08;1.02;;;0.50;;
52041;SDS011;38052;45.944;13.624;2023-11-21T13:25:37;2.95;;;0.40;;
52041;SDS011;38052;45.944;13.624;2023-11-21T13:28:04;1.67;;;0.52;;
52041;SDS011;38052;45.944;13.624;2023-11-21T13:30:30;0.98;;;0.45;;
52041;SDS011;38052;45.944;13.624;2023-11-21T13:33:00;1.05;;;0.40;;
52041;SDS011;38052;45.944;13.624;2023-11-21T13:35:39;0.77;;;0.40;;
52041;SDS011;38052;45.944;13.624;2023-11-21T13:38:13;1.77;;;0.57;;
52041;SDS011;38052;45.944;13.624;2023-11-21T13:40:40;2.42;;;0.90;;
52041;SDS011;38052;45.944;13.624;2023-11-21T13:43:11;3.08;;;0.88;;
52041;SDS011;38052;45.944;13.624;2023-11-21T13:45:38;2.38;;;1.23;;
52041;SDS011;38052;45.944;13.624;2023-11-21T13:48:05;2.05;;;1.10;;
52041;SDS011;38052;45.944;13.624;2023-11-21T13:50:35;1.58;;;0.63;;
52041;SDS011;38052;45.944;13.624;2023-11-21T13:53:03;1.98;;;0.90;;
52041;SDS011;38052;45.944;13.624;2023-11-21T13:55:35;4.43;;;0.85;;
52041;SDS011;38052;45.944;13.624;2023-11-21T13:58:02;2.40;;;0.93;;
52041;SDS011;38052;45.944;13.624;2023-11-21T14:00:29;1.23;;;0.45;;
52041;SDS011;38052;45.944;13.624;2023-11-21T14:03:11;2.00;;;0.55;;
52041;SDS011;38052;45.944;13.624;2023-11-21T14:05:49;1.98;;;0.50;;
52041;SDS011;38052;45.944;13.624;2023-11-21T14:08:19;1.85;;;0.40;;
52041;SDS011;38052;45.944;13.624;2023-11-21T14:10:46;1.02;;;0.40;;
52041;SDS011;38052;45.944;13.624;2023-11-21T14:13:18;3.67;;;1.13;;
52041;SDS011;38052;45.944;13.624;2023-11-21T14:15:48;3.17;;;1.05;;
52041;SDS011;38052;45.944;13.624;2023-11-21T14:18:17;3.55;;;1.25;;
52041;SDS011;38052;45.944;13.624;2023-11-21T14:20:52;4.05;;;0.80;;
52041;SDS011;38052;45.944;13.624;2023-11-21T14:23:18;1.80;;;0.75;;
52041;SDS011;38052;45.944;13.624;2023-11-21T14:25:46;3.90;;;2.17;;
52041;SDS011;38052;45.944;13.624;2023-11-21T14:28:13;3.85;;;1.55;;
52041;SDS011;38052;45.944;13.624;2023-11-21T14:30:39;2.50;;;1.55;;
52041;SDS011;38052;45.944;13.624;2023-11-21T14:33:07;2.25;;;1.42;;
52041;SDS011;38052;45.944;13.624;2023-11-21T14:35:35;2.20;;;0.95;;
52041;SDS011;38052;45.944;13.624;2023-11-21T14:38:01;2.20;;;1.10;;
52041;SDS011;38052;45.944;13.624;2023-11-21T14:40:33;2.50;;;0.82;;
52041;SDS011;38052;45.944;13.624;2023-11-21T14:43:01;7.10;;;1.15;;